DTTZ/TOE METAR and TAF weather

Enter ICAO airport designator
Station Type Date Time Source
DTTZ METAR 2019/07/18 11:00 UTC NOAA

DTTZ 181100Z 13005KT 030V180 9999 SCT033 35/14 Q1011 NOSIG


Station Type Date Time Source
DTTZ Decoded METAR 2019/07/18 11:00 UTC NOAA

Tozeur, Tunisia (DTTZ) 33-55N 008-06E 93M
Jul 18, 2019 - 07:00 AM EDT / 2019.07.18 1100 UTC
Wind: from the SE (130 degrees) at 6 MPH (5 KT) (direction variable):0
Visibility: greater than 7 mile(s):0
Sky conditions: partly cloudy
Temperature: 95 F (35 C)
Dew Point: 57 F (14 C)
Relative Humidity: 28%
Pressure (altimeter): 29.85 in. Hg (1011 hPa)
ob: DTTZ 181100Z 13005KT 030V180 9999 SCT033 35/14 Q1011 NOSIG
cycle: 11

Station Type Date Time Source
DTTZ TAF 2019/07/18 12:27 UTC NOAA

TAF DTTZ 181100Z 1812/1912 12006KT 9999 SCT033
BECMG 1814/1816 06010KT PROB30
TEMPO 1814/1819 -TS -RA FEW030CB
BECMG 1819/1821 12010KT

Example: see airport list